createdAt,value
2018-12-02T00:01:01.175Z,18.77
2018-12-02T00:03:28.842Z,18.77
2018-12-02T00:05:56.483Z,18.78
2018-12-02T00:08:24.132Z,18.74
2018-12-02T00:10:51.836Z,18.74
2018-12-02T00:13:19.473Z,18.75
2018-12-02T00:15:47.115Z,18.76
2018-12-02T00:18:14.831Z,18.77
2018-12-02T00:20:42.519Z,18.78
2018-12-02T00:23:10.360Z,18.79
2018-12-02T00:25:37.943Z,18.78
2018-12-02T00:28:06.865Z,18.76
2018-12-02T00:30:34.606Z,18.77
2018-12-02T00:33:02.302Z,18.78
2018-12-02T00:35:29.934Z,18.77
2018-12-02T00:37:59.634Z,18.77
2018-12-02T00:40:27.307Z,18.77
2018-12-02T00:42:56.772Z,18.77
2018-12-02T00:45:26.610Z,18.77
2018-12-02T00:47:55.109Z,18.76
2018-12-02T00:50:22.785Z,18.74
2018-12-02T00:52:53.138Z,18.75
2018-12-02T00:55:22.134Z,18.72
2018-12-02T00:57:49.783Z,18.74
2018-12-02T01:00:17.460Z,18.76
2018-12-02T01:02:46.055Z,18.73
2018-12-02T01:05:15.617Z,18.74
2018-12-02T01:07:43.275Z,18.72
2018-12-02T01:10:13.733Z,18.74
2018-12-02T01:12:41.382Z,18.75
2018-12-02T01:15:10.262Z,18.75
2018-12-02T01:17:37.996Z,18.75
2018-12-02T01:20:13.013Z,18.73
2018-12-02T01:22:40.663Z,18.74
2018-12-02T01:25:09.526Z,18.72
2018-12-02T01:27:37.232Z,18.73
2018-12-02T01:30:11.905Z,18.73
2018-12-02T01:32:39.977Z,18.73
2018-12-02T01:35:08.168Z,18.72
2018-12-02T01:37:36.121Z,18.71
2018-12-02T01:40:05.466Z,18.72
2018-12-02T01:42:33.085Z,18.72
2018-12-02T01:45:00.881Z,18.72
2018-12-02T01:47:28.531Z,18.71
2018-12-02T01:49:56.125Z,18.73
2018-12-02T01:52:23.764Z,18.72
2018-12-02T01:54:51.349Z,18.72
2018-12-02T01:57:19.009Z,18.73
2018-12-02T01:59:46.688Z,18.74
2018-12-02T02:02:14.320Z,18.72
2018-12-02T02:04:41.983Z,18.71
2018-12-02T02:07:09.637Z,18.72
2018-12-02T02:09:37.402Z,18.74
2018-12-02T02:12:05.041Z,18.73
2018-12-02T02:14:32.664Z,18.76
2018-12-02T02:17:00.302Z,18.74
2018-12-02T02:19:27.965Z,18.76
2018-12-02T02:21:55.593Z,18.73
2018-12-02T02:24:23.356Z,18.72
2018-12-02T02:26:51.036Z,18.71
2018-12-02T02:29:18.629Z,18.72
2018-12-02T02:31:46.309Z,18.73
2018-12-02T02:34:13.967Z,18.73
2018-12-02T02:36:41.636Z,18.74
2018-12-02T02:39:09.338Z,18.75
2018-12-02T02:41:36.984Z,18.75
2018-12-02T02:44:04.982Z,18.73
2018-12-02T02:46:32.639Z,18.72
2018-12-02T02:49:00.295Z,18.71
2018-12-02T02:51:27.912Z,18.72
2018-12-02T02:53:55.553Z,18.72
2018-12-02T02:56:23.243Z,18.71
2018-12-02T02:58:50.930Z,18.73
2018-12-02T03:01:18.690Z,18.74
2018-12-02T03:03:46.374Z,18.73
2018-12-02T03:06:13.972Z,18.72
2018-12-02T03:08:41.637Z,18.73
2018-12-02T03:11:09.295Z,18.73
2018-12-02T03:13:36.896Z,18.73
2018-12-02T03:16:04.563Z,18.73
2018-12-02T03:18:32.152Z,18.74
2018-12-02T03:20:59.806Z,18.75
2018-12-02T03:23:27.436Z,18.75
2018-12-02T03:25:55.108Z,18.75
2018-12-02T03:28:22.752Z,18.76
2018-12-02T03:30:50.556Z,18.74
2018-12-02T03:33:18.177Z,18.77
2018-12-02T03:35:45.781Z,18.76
2018-12-02T03:38:13.445Z,18.76
2018-12-02T03:40:41.115Z,18.75
2018-12-02T03:43:08.742Z,18.75
2018-12-02T03:45:36.369Z,18.77
2018-12-02T03:48:04.061Z,18.75
2018-12-02T03:50:31.715Z,18.76
2018-12-02T03:52:59.395Z,18.74
2018-12-02T03:55:26.981Z,18.75
2018-12-02T03:57:54.708Z,18.74
2018-12-02T04:00:23.369Z,18.74
2018-12-02T04:02:51.784Z,18.73
2018-12-02T04:05:22.947Z,18.72
2018-12-02T04:07:51.096Z,18.71
2018-12-02T04:10:19.306Z,18.69
2018-12-02T04:12:47.943Z,18.69
2018-12-02T04:15:17.543Z,18.69
2018-12-02T04:17:45.837Z,18.70
2018-12-02T04:20:15.368Z,18.70
2018-12-02T04:22:43.336Z,18.69
2018-12-02T04:25:12.850Z,18.70
2018-12-02T04:27:40.597Z,18.73
2018-12-02T04:30:09.911Z,18.78
2018-12-02T04:32:37.544Z,18.84
2018-12-02T04:35:07.368Z,18.84
2018-12-02T04:37:35.005Z,18.85
2018-12-02T04:40:03.004Z,18.86
2018-12-02T04:42:30.657Z,18.86
2018-12-02T04:44:58.320Z,18.87
2018-12-02T04:47:25.978Z,18.89
2018-12-02T04:49:53.582Z,18.91
2018-12-02T04:52:21.213Z,18.92
2018-12-02T04:54:48.893Z,18.94
2018-12-02T04:57:16.548Z,18.94
2018-12-02T04:59:44.226Z,18.93
2018-12-02T05:02:11.880Z,18.96
2018-12-02T05:04:39.553Z,18.96
2018-12-02T05:07:07.174Z,18.97
2018-12-02T05:09:34.874Z,18.98
2018-12-02T05:12:02.555Z,18.96
2018-12-02T05:14:30.190Z,18.96
2018-12-02T05:16:57.816Z,18.97
2018-12-02T05:19:25.443Z,18.98
2018-12-02T05:21:53.091Z,18.96
2018-12-02T05:24:20.790Z,18.97
2018-12-02T05:26:48.470Z,18.98
2018-12-02T05:29:16.164Z,18.96
2018-12-02T05:31:43.777Z,18.96
2018-12-02T05:34:11.415Z,18.94
2018-12-02T05:36:39.087Z,18.94
2018-12-02T05:39:08.896Z,18.96
2018-12-02T05:41:42.378Z,18.96
2018-12-02T05:44:10.059Z,18.97
2018-12-02T05:46:37.674Z,18.95
2018-12-02T05:49:05.654Z,18.96
2018-12-02T05:51:33.281Z,18.97
2018-12-02T05:54:00.925Z,18.97
2018-12-02T05:56:28.657Z,18.94
2018-12-02T05:58:56.278Z,18.94
2018-12-02T06:01:23.966Z,18.95
2018-12-02T06:03:51.693Z,18.93
2018-12-02T06:06:19.320Z,18.95
2018-12-02T06:08:46.955Z,18.97
2018-12-02T06:11:14.630Z,18.98
2018-12-02T06:13:42.296Z,18.99
2018-12-02T06:16:09.995Z,18.98
2018-12-02T06:18:37.696Z,18.99
2018-12-02T06:21:06.031Z,18.99
2018-12-02T06:23:33.678Z,19.01
2018-12-02T06:26:01.416Z,19.01
2018-12-02T06:28:29.166Z,19.02
2018-12-02T06:30:56.882Z,19.01
2018-12-02T06:33:24.602Z,19.00
2018-12-02T06:35:52.300Z,18.98
2018-12-02T06:38:19.989Z,18.99
2018-12-02T06:40:47.675Z,18.99
2018-12-02T06:43:15.367Z,18.99
2018-12-02T06:45:43.177Z,18.99
2018-12-02T06:48:10.929Z,18.97
2018-12-02T06:50:38.603Z,18.95
2018-12-02T06:53:06.800Z,18.97
2018-12-02T06:55:47.599Z,18.99
2018-12-02T06:58:23.167Z,19.00
2018-12-02T07:01:21.078Z,18.99
2018-12-02T07:03:58.121Z,19.00
2018-12-02T07:06:25.831Z,19.00
2018-12-02T07:08:53.536Z,19.01
2018-12-02T07:11:21.215Z,19.00
2018-12-02T07:13:48.959Z,19.01
2018-12-02T07:16:16.619Z,19.01
2018-12-02T07:18:48.663Z,19.01
2018-12-02T07:21:19.774Z,19.04
2018-12-02T07:23:50.044Z,19.04
2018-12-02T07:26:22.615Z,19.04
2018-12-02T07:28:50.286Z,19.04
2018-12-02T07:31:18.114Z,19.04
2018-12-02T07:33:45.761Z,19.05
2018-12-02T07:36:13.405Z,19.05
2018-12-02T07:39:04.531Z,19.03
2018-12-02T07:41:32.226Z,19.04
2018-12-02T07:43:59.924Z,19.05
2018-12-02T07:46:27.627Z,19.06
2018-12-02T07:48:55.314Z,19.04
2018-12-02T07:51:23.271Z,19.03
2018-12-02T07:53:51.444Z,19.03
2018-12-02T07:56:19.105Z,19.04
2018-12-02T07:58:46.890Z,19.04
2018-12-02T08:01:14.574Z,19.04
2018-12-02T08:03:42.278Z,19.05
2018-12-02T08:06:10.073Z,19.05
2018-12-02T08:08:37.814Z,19.06
2018-12-02T08:11:06.200Z,19.05
2018-12-02T08:13:33.833Z,19.04
2018-12-02T08:16:01.507Z,19.04
2018-12-02T08:18:29.265Z,19.05
2018-12-02T08:20:56.965Z,19.07
2018-12-02T08:23:24.657Z,19.09
2018-12-02T08:25:52.465Z,19.11
2018-12-02T08:28:20.148Z,19.08
2018-12-02T08:30:47.833Z,19.09
2018-12-02T08:33:15.638Z,19.09
2018-12-02T08:35:43.419Z,19.09
2018-12-02T08:38:11.514Z,19.11
2018-12-02T08:40:39.230Z,19.10
2018-12-02T08:43:07.570Z,19.10
2018-12-02T08:45:35.293Z,19.09
2018-12-02T08:48:02.991Z,19.11
2018-12-02T08:50:30.780Z,19.10
2018-12-02T08:52:58.412Z,19.12
2018-12-02T08:55:26.085Z,19.12
2018-12-02T08:57:54.100Z,19.12
2018-12-02T09:00:22.486Z,19.11
2018-12-02T09:02:58.062Z,19.13
2018-12-02T09:05:25.889Z,19.11
2018-12-02T09:07:56.334Z,19.14
2018-12-02T09:10:26.416Z,19.15
2018-12-02T09:13:02.331Z,19.14
2018-12-02T09:15:29.999Z,19.15
2018-12-02T09:17:57.683Z,19.14
2018-12-02T09:20:28.669Z,19.15
2018-12-02T09:22:56.385Z,19.14
2018-12-02T09:25:24.070Z,19.16
2018-12-02T09:27:51.728Z,19.15
2018-12-02T09:30:21.677Z,19.15
2018-12-02T09:32:49.413Z,19.13
2018-12-02T09:35:17.087Z,19.17
2018-12-02T09:37:44.782Z,19.17
2018-12-02T09:40:15.163Z,19.19
2018-12-02T09:42:45.105Z,19.21
2018-12-02T09:45:14.541Z,19.22
2018-12-02T09:47:42.188Z,19.21
2018-12-02T09:50:12.502Z,19.21
2018-12-02T09:52:40.194Z,19.23
2018-12-02T09:55:11.045Z,19.22
2018-12-02T09:57:38.835Z,19.21
2018-12-02T10:00:12.282Z,19.23
2018-12-02T10:02:39.976Z,19.25
2018-12-02T10:05:07.716Z,19.22
2018-12-02T10:07:35.530Z,19.21
2018-12-02T10:10:03.295Z,19.23
2018-12-02T10:12:30.987Z,19.22
2018-12-02T10:14:59.071Z,19.20
2018-12-02T10:17:26.804Z,19.17
2018-12-02T10:19:54.497Z,19.19
2018-12-02T10:22:22.193Z,19.19
2018-12-02T10:24:49.856Z,19.22
2018-12-02T10:27:17.580Z,19.21
2018-12-02T10:29:45.299Z,19.20
2018-12-02T10:32:12.974Z,19.19
2018-12-02T10:34:40.800Z,19.21
2018-12-02T10:37:08.508Z,19.19
2018-12-02T10:39:36.174Z,19.21
2018-12-02T10:42:03.851Z,19.21
2018-12-02T10:44:31.516Z,19.23
2018-12-02T10:46:59.270Z,19.21
2018-12-02T10:49:26.961Z,19.22
2018-12-02T10:51:54.658Z,19.25
2018-12-02T10:54:22.495Z,19.27
2018-12-02T10:56:50.178Z,19.26
2018-12-02T10:59:17.909Z,19.27
2018-12-02T11:01:45.709Z,19.27
2018-12-02T11:04:13.388Z,19.26
2018-12-02T11:06:41.119Z,19.26
2018-12-02T11:09:11.913Z,19.31
2018-12-02T11:11:39.597Z,19.29
2018-12-02T11:14:07.335Z,19.29
2018-12-02T11:16:35.122Z,19.29
2018-12-02T11:19:02.857Z,19.28
2018-12-02T11:21:30.544Z,19.26
2018-12-02T11:23:58.284Z,19.29
2018-12-02T11:26:25.975Z,19.31
2018-12-02T11:28:53.675Z,19.32
2018-12-02T11:31:21.352Z,19.32
2018-12-02T11:33:49.051Z,19.31
2018-12-02T11:36:16.773Z,19.31
2018-12-02T11:38:44.464Z,19.31
2018-12-02T11:41:12.209Z,19.32
2018-12-02T11:43:39.854Z,19.32
2018-12-02T11:46:07.617Z,19.31
2018-12-02T11:48:35.370Z,19.33
2018-12-02T11:51:03.095Z,19.34
2018-12-02T11:53:30.798Z,19.36
2018-12-02T11:55:58.497Z,19.36
2018-12-02T11:58:26.156Z,19.36
2018-12-02T12:00:53.859Z,19.38
2018-12-02T12:03:21.549Z,19.35
2018-12-02T12:05:49.263Z,19.37
2018-12-02T12:08:17.005Z,19.37
2018-12-02T12:10:44.772Z,19.38
2018-12-02T12:13:12.645Z,19.37
2018-12-02T12:15:40.277Z,19.38
2018-12-02T12:18:09.155Z,19.38
2018-12-02T12:20:41.291Z,19.39
2018-12-02T12:23:11.433Z,19.37
2018-12-02T12:25:39.082Z,19.35
2018-12-02T12:28:07.927Z,19.34
2018-12-02T12:30:36.510Z,19.33
2018-12-02T12:33:04.927Z,19.35
2018-12-02T12:35:32.559Z,19.34
2018-12-02T12:38:00.274Z,19.35
2018-12-02T12:40:30.056Z,19.36
2018-12-02T12:42:59.698Z,19.36
2018-12-02T12:45:27.366Z,19.36
2018-12-02T12:47:55.117Z,19.36
2018-12-02T12:50:22.725Z,19.35
2018-12-02T12:52:50.460Z,19.37
2018-12-02T12:55:18.098Z,19.37
2018-12-02T12:57:46.049Z,19.37
2018-12-02T13:00:19.037Z,19.36
2018-12-02T13:02:46.984Z,19.36
2018-12-02T13:05:16.000Z,19.35
2018-12-02T13:07:43.656Z,19.34
2018-12-02T13:10:12.490Z,19.32
2018-12-02T13:12:40.208Z,19.32
2018-12-02T13:15:10.649Z,19.32
2018-12-02T13:17:38.379Z,19.32
2018-12-02T13:20:10.335Z,19.30
2018-12-02T13:22:38.107Z,19.31
2018-12-02T13:25:07.203Z,19.31
2018-12-02T13:27:34.820Z,19.31
2018-12-02T13:30:02.828Z,19.30
2018-12-02T13:32:30.448Z,19.33
2018-12-02T13:34:58.218Z,19.31
2018-12-02T13:37:25.855Z,19.30
2018-12-02T13:39:53.485Z,19.30
2018-12-02T13:42:21.268Z,19.30
2018-12-02T13:44:48.926Z,19.29
2018-12-02T13:47:16.569Z,19.31
2018-12-02T13:49:44.183Z,19.30
2018-12-02T13:52:11.881Z,19.30
2018-12-02T13:54:39.575Z,19.29
2018-12-02T13:57:07.285Z,19.28
2018-12-02T13:59:34.949Z,19.27
2018-12-02T14:02:02.607Z,19.29
2018-12-02T14:04:30.295Z,19.29
2018-12-02T14:06:57.971Z,19.27
2018-12-02T14:09:25.667Z,19.27
2018-12-02T14:11:53.333Z,19.26
2018-12-02T14:14:21.034Z,19.26
2018-12-02T14:16:56.815Z,19.24
2018-12-02T14:19:24.512Z,19.25
2018-12-02T14:21:52.209Z,19.24
2018-12-02T14:24:19.861Z,19.22
2018-12-02T14:26:47.626Z,19.20
2018-12-02T14:29:18.198Z,19.21
2018-12-02T14:31:49.351Z,19.23
2018-12-02T14:34:16.980Z,19.24
2018-12-02T14:36:44.666Z,19.24
2018-12-02T14:39:12.681Z,19.23
2018-12-02T14:41:40.289Z,19.21
2018-12-02T14:44:08.327Z,19.21
2018-12-02T14:46:36.246Z,19.20
2018-12-02T14:49:04.562Z,19.20
2018-12-02T14:51:32.216Z,19.21
2018-12-02T14:53:59.883Z,19.20
2018-12-02T14:56:27.538Z,19.19
2018-12-02T14:58:55.193Z,19.19
2018-12-02T15:01:22.907Z,19.21
2018-12-02T15:03:50.554Z,19.21
2018-12-02T15:06:18.198Z,19.21
2018-12-02T15:08:45.867Z,19.21
2018-12-02T15:11:13.681Z,19.20
2018-12-02T15:13:41.333Z,19.20
2018-12-02T15:16:08.993Z,19.20
2018-12-02T15:18:36.689Z,19.21
2018-12-02T15:21:04.621Z,19.20
2018-12-02T15:23:32.309Z,19.20
2018-12-02T15:25:59.944Z,19.20
2018-12-02T15:28:27.579Z,19.22
2018-12-02T15:30:55.255Z,19.25
2018-12-02T15:33:22.999Z,19.22
2018-12-02T15:35:50.641Z,19.20
2018-12-02T15:38:18.270Z,19.21
2018-12-02T15:40:45.966Z,19.22
2018-12-02T15:43:13.639Z,19.21
2018-12-02T15:45:41.283Z,19.20
2018-12-02T15:48:08.974Z,19.20
2018-12-02T15:50:36.615Z,19.20
2018-12-02T15:53:04.263Z,19.21
2018-12-02T15:55:33.265Z,19.20
2018-12-02T15:58:02.533Z,19.20
2018-12-02T16:00:32.360Z,19.22
2018-12-02T16:03:00.013Z,19.21
2018-12-02T16:05:27.686Z,19.23
2018-12-02T16:07:55.343Z,19.22
2018-12-02T16:10:22.964Z,19.22
2018-12-02T16:12:51.966Z,19.20
2018-12-02T16:15:22.639Z,19.18
2018-12-02T16:17:50.901Z,19.18
2018-12-02T16:20:23.219Z,19.19
2018-12-02T16:22:50.903Z,19.18
2018-12-02T16:25:18.596Z,19.18
2018-12-02T16:27:46.258Z,19.17
2018-12-02T16:30:16.733Z,19.17
2018-12-02T16:32:45.776Z,19.18
2018-12-02T16:35:14.231Z,19.19
2018-12-02T16:37:42.039Z,19.17
2018-12-02T16:40:12.931Z,19.17
2018-12-02T16:42:40.580Z,19.17
2018-12-02T16:45:10.577Z,19.16
2018-12-02T16:47:38.281Z,19.14
2018-12-02T16:50:11.526Z,19.14
2018-12-02T16:52:39.195Z,19.14
2018-12-02T16:55:10.228Z,19.13
2018-12-02T16:57:38.021Z,19.14
2018-12-02T17:00:09.911Z,19.14
2018-12-02T17:02:37.588Z,19.14
2018-12-02T17:05:07.050Z,19.14
2018-12-02T17:07:34.683Z,19.13
2018-12-02T17:10:02.383Z,19.11
2018-12-02T17:12:30.101Z,19.12
2018-12-02T17:14:57.742Z,19.12
2018-12-02T17:17:25.402Z,19.13
2018-12-02T17:19:53.088Z,19.12
2018-12-02T17:22:20.762Z,19.10
2018-12-02T17:24:48.367Z,19.09
2018-12-02T17:27:16.034Z,19.08
2018-12-02T17:29:43.703Z,19.09
2018-12-02T17:32:12.206Z,19.09
2018-12-02T17:34:39.897Z,19.08
2018-12-02T17:37:07.537Z,19.09
2018-12-02T17:39:38.088Z,19.10
2018-12-02T17:42:07.696Z,19.09
2018-12-02T17:44:35.392Z,19.08
2018-12-02T17:47:03.004Z,19.09
2018-12-02T17:49:30.605Z,19.07
2018-12-02T17:51:58.322Z,19.08
2018-12-02T17:54:25.972Z,19.08
2018-12-02T17:56:53.671Z,19.08
2018-12-02T17:59:21.316Z,19.07
2018-12-02T18:01:49.010Z,19.06
2018-12-02T18:04:16.642Z,19.09
2018-12-02T18:06:44.268Z,19.10
2018-12-02T18:09:13.063Z,19.07
2018-12-02T18:11:40.774Z,19.06
2018-12-02T18:14:08.455Z,19.07
2018-12-02T18:16:36.230Z,19.08
2018-12-02T18:19:03.954Z,19.06
2018-12-02T18:21:31.597Z,19.07
2018-12-02T18:23:59.251Z,19.07
2018-12-02T18:26:26.898Z,19.05
2018-12-02T18:28:54.529Z,19.06
2018-12-02T18:31:22.169Z,19.07
2018-12-02T18:33:49.891Z,19.07
2018-12-02T18:36:19.977Z,19.08
2018-12-02T18:38:48.349Z,19.09
2018-12-02T18:41:50.713Z,19.09
2018-12-02T18:44:18.348Z,19.08
2018-12-02T18:46:46.246Z,19.08
2018-12-02T18:49:14.045Z,19.10
2018-12-02T18:51:41.764Z,19.11
2018-12-02T18:54:10.009Z,19.11
2018-12-02T18:56:37.856Z,19.10
2018-12-02T18:59:05.491Z,19.11
2018-12-02T19:01:33.145Z,19.12
2018-12-02T19:04:00.999Z,19.12
2018-12-02T19:06:28.623Z,19.12
2018-12-02T19:08:56.295Z,19.15
2018-12-02T19:11:24.108Z,19.14
2018-12-02T19:13:52.381Z,19.14
2018-12-02T19:16:19.477Z,19.13
2018-12-02T19:18:48.481Z,19.15
2018-12-02T19:21:20.400Z,19.16
2018-12-02T19:23:48.007Z,19.20
2018-12-02T19:26:15.673Z,19.20
2018-12-02T19:28:43.312Z,19.19
2018-12-02T19:31:10.998Z,19.20
2018-12-02T19:33:38.784Z,19.21
2018-12-02T19:36:09.350Z,19.19
2018-12-02T19:38:37.012Z,19.21
2018-12-02T19:41:05.639Z,19.21
2018-12-02T19:43:33.255Z,19.21
2018-12-02T19:46:00.935Z,19.22
2018-12-02T19:48:28.563Z,19.24
2018-12-02T19:50:56.216Z,19.23
2018-12-02T19:53:23.865Z,19.21
2018-12-02T19:55:51.721Z,19.21
2018-12-02T19:58:19.416Z,19.22
2018-12-02T20:00:47.224Z,19.23
2018-12-02T20:03:16.434Z,19.24
2018-12-02T20:05:45.112Z,19.26
2018-12-02T20:08:13.899Z,19.26
2018-12-02T20:10:46.492Z,19.26
2018-12-02T20:13:15.419Z,19.26
2018-12-02T20:15:48.628Z,19.26
2018-12-02T20:18:16.322Z,19.27
2018-12-02T20:20:48.343Z,19.23
2018-12-02T20:23:21.528Z,19.24
2018-12-02T20:25:50.594Z,19.23
2018-12-02T20:28:18.381Z,19.22
2018-12-02T20:30:46.037Z,19.20
2018-12-02T20:33:13.882Z,19.21
2018-12-02T20:35:41.565Z,19.19
2018-12-02T20:38:09.244Z,19.21
2018-12-02T20:40:37.024Z,19.20
2018-12-02T20:43:04.695Z,19.21
2018-12-02T20:45:32.340Z,19.21
2018-12-02T20:48:00.017Z,19.20
2018-12-02T20:50:27.716Z,19.21
2018-12-02T20:52:55.441Z,19.21
2018-12-02T20:55:25.311Z,19.21
2018-12-02T20:57:55.007Z,19.19
2018-12-02T21:00:22.735Z,19.17
2018-12-02T21:02:54.104Z,19.18
2018-12-02T21:05:28.914Z,19.18
2018-12-02T21:07:56.627Z,19.17
2018-12-02T21:10:24.297Z,19.18
2018-12-02T21:12:52.002Z,19.16
2018-12-02T21:15:19.701Z,19.17
2018-12-02T21:17:47.328Z,19.15
2018-12-02T21:20:15.149Z,19.17
2018-12-02T21:22:42.862Z,19.16
2018-12-02T21:25:13.045Z,19.17
2018-12-02T21:27:40.722Z,19.17
2018-12-02T21:30:18.153Z,19.15
2018-12-02T21:32:45.817Z,19.15
2018-12-02T21:35:13.439Z,19.16
2018-12-02T21:37:41.112Z,19.16
2018-12-02T21:40:12.056Z,19.17
2018-12-02T21:42:39.685Z,19.17
2018-12-02T21:45:08.744Z,19.16
2018-12-02T21:47:36.509Z,19.17
2018-12-02T21:50:13.528Z,19.14
2018-12-02T21:52:41.300Z,19.16
2018-12-02T21:55:08.970Z,19.15
2018-12-02T21:57:36.964Z,19.16
2018-12-02T22:00:20.406Z,19.15
2018-12-02T22:02:48.599Z,19.17
2018-12-02T22:05:16.286Z,19.18
2018-12-02T22:07:44.099Z,19.16
2018-12-02T22:10:14.251Z,19.17
2018-12-02T22:12:41.906Z,19.17
2018-12-02T22:15:09.570Z,19.17
2018-12-02T22:17:37.232Z,19.16
2018-12-02T22:20:08.199Z,19.17
2018-12-02T22:22:35.818Z,19.16
2018-12-02T22:25:03.863Z,19.16
2018-12-02T22:27:31.487Z,19.15
2018-12-02T22:29:59.148Z,19.15
2018-12-02T22:32:26.930Z,19.15
2018-12-02T22:34:54.588Z,19.15
2018-12-02T22:37:22.226Z,19.15
2018-12-02T22:39:49.897Z,19.15
2018-12-02T22:42:17.593Z,19.15
2018-12-02T22:44:45.219Z,19.16
2018-12-02T22:47:12.810Z,19.17
2018-12-02T22:49:40.582Z,19.15
2018-12-02T22:52:08.213Z,19.16
2018-12-02T22:54:35.847Z,19.19
2018-12-02T22:57:03.529Z,19.17
2018-12-02T22:59:31.179Z,19.16
2018-12-02T23:02:04.445Z,19.17
2018-12-02T23:04:32.252Z,19.16
2018-12-02T23:06:59.924Z,19.15
2018-12-02T23:09:27.576Z,19.15
2018-12-02T23:11:55.244Z,19.15
2018-12-02T23:14:22.908Z,19.15
2018-12-02T23:17:01.948Z,19.16
2018-12-02T23:19:29.623Z,19.16
2018-12-02T23:21:57.278Z,19.15
2018-12-02T23:24:24.871Z,19.13
2018-12-02T23:26:52.544Z,19.14
2018-12-02T23:29:20.239Z,19.14
2018-12-02T23:31:48.040Z,19.16
2018-12-02T23:34:15.723Z,19.15
2018-12-02T23:36:43.382Z,19.15
2018-12-02T23:39:11.040Z,19.16
2018-12-02T23:41:38.695Z,19.18
2018-12-02T23:44:06.415Z,19.16
2018-12-02T23:46:34.156Z,19.13
2018-12-02T23:49:01.860Z,19.16
2018-12-02T23:51:29.656Z,19.15
2018-12-02T23:53:57.339Z,19.15
2018-12-02T23:56:25.002Z,19.16
2018-12-02T23:58:52.677Z,19.15
